createdAt,value
2022-11-25T00:00:14.118Z,8.77
2022-11-25T00:02:44.959Z,8.57
2022-11-25T00:05:12.227Z,7.70
2022-11-25T00:07:39.383Z,4.40
2022-11-25T00:10:07.191Z,6.90
2022-11-25T00:12:34.279Z,6.70
2022-11-25T00:15:01.495Z,7.60
2022-11-25T00:17:28.559Z,8.20
2022-11-25T00:19:56.253Z,9.57
2022-11-25T00:22:23.385Z,10.87
2022-11-25T00:24:50.578Z,8.40
2022-11-25T00:27:17.716Z,8.10
2022-11-25T00:29:44.812Z,4.50
2022-11-25T00:32:12.071Z,6.47
2022-11-25T00:34:39.165Z,5.13
2022-11-25T00:37:06.383Z,5.07
2022-11-25T00:39:33.536Z,6.50
2022-11-25T00:42:19.272Z,7.17
2022-11-25T00:44:46.403Z,6.87
2022-11-25T00:47:17.728Z,7.93
2022-11-25T00:49:47.740Z,7.60
2022-11-25T00:52:23.518Z,8.80
2022-11-25T00:54:51.924Z,7.50
2022-11-25T00:57:21.586Z,3.70
2022-11-25T01:00:08.038Z,6.00
2022-11-25T01:02:35.338Z,5.30
2022-11-25T01:05:02.663Z,4.67
2022-11-25T01:07:29.854Z,4.47
2022-11-25T01:09:57.204Z,6.17
2022-11-25T01:12:24.364Z,5.47
2022-11-25T01:14:51.518Z,3.23
2022-11-25T01:17:18.691Z,5.37
2022-11-25T01:19:45.766Z,5.03
2022-11-25T01:22:12.964Z,5.50
2022-11-25T01:24:40.100Z,6.47
2022-11-25T01:27:07.151Z,7.33
2022-11-25T01:29:41.772Z,5.90
2022-11-25T01:32:08.846Z,6.80
2022-11-25T01:34:37.544Z,10.27
2022-11-25T01:37:05.686Z,4.40
2022-11-25T01:39:33.386Z,6.83
2022-11-25T01:42:01.826Z,7.43
2022-11-25T01:44:31.650Z,5.70
2022-11-25T01:47:05.357Z,6.80
2022-11-25T01:49:38.348Z,4.97
2022-11-25T01:52:15.827Z,9.23
2022-11-25T01:54:53.950Z,8.90
2022-11-25T01:57:34.544Z,5.83
2022-11-25T02:00:09.553Z,6.40
2022-11-25T02:02:36.801Z,7.03
2022-11-25T02:05:08.955Z,10.03
2022-11-25T02:07:43.424Z,8.23
2022-11-25T02:10:32.124Z,4.27
2022-11-25T02:12:59.791Z,6.87
2022-11-25T02:15:28.828Z,6.37
2022-11-25T02:18:14.484Z,7.70
2022-11-25T02:27:07.505Z,10.70
2022-11-25T02:29:35.289Z,10.20
2022-11-25T02:32:02.507Z,13.20
2022-11-25T02:34:29.634Z,10.33
2022-11-25T02:36:56.918Z,12.40
2022-11-25T02:39:24.197Z,9.40
2022-11-25T02:41:58.044Z,10.43
2022-11-25T02:44:27.538Z,13.30
2022-11-25T02:46:54.720Z,10.07
2022-11-25T02:49:21.883Z,14.20
2022-11-25T02:51:49.058Z,6.60
2022-11-25T02:54:16.475Z,12.30
2022-11-25T02:56:43.793Z,11.33
2022-11-25T02:59:12.272Z,11.93
2022-11-25T03:01:39.911Z,11.83
2022-11-25T03:04:07.452Z,11.97
2022-11-25T03:06:34.777Z,12.13
2022-11-25T03:09:02.941Z,12.37
2022-11-25T03:11:49.799Z,11.40
2022-11-25T03:14:17.322Z,8.10
2022-11-25T03:16:44.969Z,11.10
2022-11-25T03:19:12.284Z,11.70
2022-11-25T03:21:39.550Z,8.50
2022-11-25T03:24:08.188Z,8.60
2022-11-25T03:26:35.471Z,7.80
2022-11-25T03:29:02.722Z,11.37
2022-11-25T03:31:30.110Z,12.83
2022-11-25T03:33:57.441Z,9.80
2022-11-25T03:36:24.738Z,14.30
2022-11-25T03:38:52.346Z,8.53
2022-11-25T03:41:19.641Z,8.20
2022-11-25T03:43:47.267Z,9.80
2022-11-25T03:46:17.408Z,6.47
2022-11-25T03:48:44.822Z,8.87
2022-11-25T03:51:12.313Z,10.43
2022-11-25T03:53:40.164Z,8.73
2022-11-25T03:56:07.999Z,7.07
2022-11-25T03:58:35.813Z,9.17
2022-11-25T04:01:04.636Z,11.13
2022-11-25T04:03:32.714Z,8.90
2022-11-25T04:06:00.073Z,10.63
2022-11-25T04:08:27.534Z,11.07
2022-11-25T04:10:54.749Z,9.90
2022-11-25T04:13:22.103Z,11.57
2022-11-25T04:15:50.957Z,8.10
2022-11-25T04:18:19.545Z,10.70
2022-11-25T04:20:47.380Z,13.27
2022-11-25T04:23:14.988Z,12.83
2022-11-25T04:25:42.293Z,14.93
2022-11-25T04:28:09.611Z,22.23
2022-11-25T04:30:37.834Z,14.70
2022-11-25T04:33:05.051Z,15.70
2022-11-25T04:35:32.128Z,17.33
2022-11-25T04:37:59.402Z,15.40
2022-11-25T04:40:26.515Z,14.77
2022-11-25T04:42:59.816Z,11.10
2022-11-25T04:45:45.311Z,12.43
2022-11-25T04:48:16.620Z,9.90
2022-11-25T04:50:44.046Z,8.30
2022-11-25T04:53:11.584Z,10.90
2022-11-25T04:55:38.723Z,9.73
2022-11-25T04:58:06.084Z,9.87
2022-11-25T05:00:33.505Z,6.30
2022-11-25T05:03:00.816Z,9.47
2022-11-25T05:05:34.975Z,8.73
2022-11-25T05:08:02.215Z,7.93
2022-11-25T05:10:29.309Z,7.73
2022-11-25T05:12:56.569Z,8.40
2022-11-25T05:15:23.753Z,7.57
2022-11-25T05:17:50.943Z,7.50
2022-11-25T05:20:18.761Z,8.20
2022-11-25T05:22:45.970Z,7.80
2022-11-25T05:25:13.231Z,7.90
2022-11-25T05:27:40.466Z,6.47
2022-11-25T05:30:08.824Z,6.73
2022-11-25T05:32:36.112Z,8.40
2022-11-25T05:35:03.713Z,7.60
2022-11-25T05:37:31.028Z,9.63
2022-11-25T05:39:58.167Z,8.73
2022-11-25T05:42:25.419Z,12.97
2022-11-25T05:44:52.628Z,7.43
2022-11-25T05:47:21.031Z,7.57
2022-11-25T05:50:02.713Z,7.73
2022-11-25T05:52:30.081Z,7.43
2022-11-25T05:54:57.698Z,7.57
2022-11-25T05:57:24.814Z,8.80
2022-11-25T06:00:11.016Z,6.37
2022-11-25T06:02:39.395Z,9.57
2022-11-25T06:05:07.196Z,6.23
2022-11-25T06:07:34.697Z,13.33
2022-11-25T06:10:03.424Z,7.60
2022-11-25T06:12:30.845Z,7.17
2022-11-25T06:14:58.144Z,6.93
2022-11-25T06:17:27.644Z,11.90
2022-11-25T06:19:54.836Z,9.60
2022-11-25T06:22:22.124Z,8.13
2022-11-25T06:24:57.595Z,9.00
2022-11-25T06:27:31.923Z,8.53
2022-11-25T06:30:30.797Z,8.77
2022-11-25T06:32:58.051Z,7.33
2022-11-25T06:35:41.565Z,6.50
2022-11-25T06:38:17.567Z,6.97
2022-11-25T06:41:32.004Z,10.00
2022-11-25T06:47:14.495Z,13.60
2022-11-25T06:49:59.398Z,4.37
2022-11-25T06:52:26.709Z,5.40
2022-11-25T06:54:56.464Z,6.43
2022-11-25T06:58:36.697Z,7.63
2022-11-25T07:00:42.160Z,10.20
2022-11-25T07:07:16.445Z,8.30
2022-11-25T07:09:43.812Z,5.57
2022-11-25T07:12:13.797Z,5.30
2022-11-25T07:14:41.159Z,12.20
2022-11-25T07:17:12.619Z,17.60
2022-11-25T07:19:42.409Z,18.07
2022-11-25T07:22:17.623Z,12.17
2022-11-25T07:25:05.410Z,8.40
2022-11-25T07:27:36.520Z,7.90
2022-11-25T07:31:09.322Z,8.47
2022-11-25T07:32:58.853Z,7.63
2022-11-25T07:35:33.858Z,8.10
2022-11-25T07:38:21.646Z,6.87
2022-11-25T07:40:50.845Z,11.83
2022-11-25T07:43:26.108Z,8.10
2022-11-25T07:45:53.833Z,7.60
2022-11-25T07:48:49.481Z,13.07
2022-11-25T07:51:49.770Z,6.00
2022-11-25T07:54:35.471Z,8.70
2022-11-25T07:57:20.912Z,7.87
2022-11-25T07:59:48.461Z,6.97
2022-11-25T08:02:18.283Z,9.90
2022-11-25T08:05:13.519Z,7.73
2022-11-25T08:07:42.683Z,8.00
2022-11-25T08:10:17.224Z,6.63
2022-11-25T08:12:56.104Z,8.03
2022-11-25T08:15:24.049Z,9.63
2022-11-25T08:17:57.667Z,5.37
2022-11-25T08:20:24.899Z,9.63
2022-11-25T08:22:59.358Z,6.53
2022-11-25T08:25:27.149Z,13.70
2022-11-25T08:28:11.838Z,10.03
2022-11-25T08:30:42.392Z,13.50
2022-11-25T08:33:30.326Z,8.30
2022-11-25T08:36:08.831Z,7.60
2022-11-25T08:38:47.932Z,12.17
2022-11-25T08:41:39.552Z,9.10
2022-11-25T08:44:12.878Z,6.20
2022-11-25T08:46:55.753Z,5.93
2022-11-25T08:49:39.139Z,7.90
2022-11-25T08:52:11.169Z,6.70
2022-11-25T08:54:38.595Z,7.40
2022-11-25T08:57:10.817Z,7.23
2022-11-25T08:59:39.157Z,6.70
2022-11-25T09:02:16.580Z,5.50
2022-11-25T09:04:44.218Z,6.80
2022-11-25T09:07:21.580Z,7.43
2022-11-25T09:09:55.353Z,9.13
2022-11-25T09:12:23.382Z,6.70
2022-11-25T09:14:50.728Z,6.57
2022-11-25T09:17:39.780Z,7.93
2022-11-25T09:20:24.129Z,7.57
2022-11-25T09:23:10.132Z,7.00
2022-11-25T09:26:07.188Z,7.37
2022-11-25T09:28:35.204Z,7.93
2022-11-25T09:31:17.053Z,10.33
2022-11-25T09:33:51.175Z,10.73
2022-11-25T09:36:19.882Z,6.30
2022-11-25T09:38:49.890Z,4.47
2022-11-25T09:42:52.502Z,4.67
2022-11-25T09:45:54.755Z,5.90
2022-11-25T09:48:43.296Z,7.47
2022-11-25T09:51:27.434Z,5.43
2022-11-25T09:54:06.911Z,6.67
2022-11-25T09:56:59.061Z,7.30
2022-11-25T10:00:02.853Z,5.70
2022-11-25T10:02:39.932Z,8.53
2022-11-25T10:05:24.289Z,6.50
2022-11-25T10:08:00.665Z,6.30
2022-11-25T10:10:41.765Z,6.23
2022-11-25T10:13:43.889Z,8.63
2022-11-25T10:16:47.240Z,8.00
2022-11-25T10:19:45.082Z,6.17
2022-11-25T10:22:33.554Z,9.37
2022-11-25T10:25:55.970Z,8.07
2022-11-25T10:28:33.733Z,5.83
2022-11-25T10:31:17.422Z,12.60
2022-11-25T10:33:55.145Z,25.53
2022-11-25T10:40:00.377Z,21.07
2022-11-25T10:47:15.254Z,6.87
2022-11-25T10:54:05.215Z,5.57
2022-11-25T10:57:03.284Z,6.13
2022-11-25T11:00:02.817Z,19.63
2022-11-25T11:02:48.594Z,6.73
2022-11-25T11:05:33.941Z,8.03
2022-11-25T11:08:28.785Z,10.87
2022-11-25T11:11:16.569Z,6.73
2022-11-25T11:14:36.569Z,5.77
2022-11-25T11:17:36.676Z,8.40
2022-11-25T11:20:51.567Z,10.30
2022-11-25T11:23:55.907Z,7.60
2022-11-25T11:26:38.033Z,7.60
2022-11-25T11:29:15.161Z,6.73
2022-11-25T11:32:17.145Z,9.13
2022-11-25T11:35:20.252Z,7.80
2022-11-25T11:38:15.608Z,6.37
2022-11-25T11:40:47.508Z,7.03
2022-11-25T11:44:29.340Z,6.20
2022-11-25T11:47:27.726Z,7.93
2022-11-25T11:50:09.792Z,5.30
2022-11-25T11:52:51.672Z,8.90
2022-11-25T11:55:25.429Z,5.73
2022-11-25T11:58:26.064Z,6.53
2022-11-25T12:01:47.028Z,7.13
2022-11-25T12:04:55.213Z,6.30
2022-11-25T12:07:59.455Z,6.83
2022-11-25T12:11:01.331Z,6.90
2022-11-25T12:24:06.692Z,7.93
2022-11-25T12:27:08.728Z,6.47
2022-11-25T12:30:07.974Z,9.83
2022-11-25T12:33:07.401Z,7.93
2022-11-25T12:36:00.842Z,12.00
2022-11-25T12:39:01.647Z,6.67
2022-11-25T12:46:31.463Z,6.13
2022-11-25T12:49:14.891Z,7.93
2022-11-25T12:51:57.349Z,6.07
2022-11-25T12:54:46.415Z,7.47
2022-11-25T13:01:30.833Z,7.67
2022-11-25T13:05:18.526Z,6.97
2022-11-25T13:08:12.301Z,4.90
2022-11-25T13:11:24.886Z,6.03
2022-11-25T13:14:34.787Z,5.90
2022-11-25T13:17:03.502Z,6.57
2022-11-25T13:19:37.492Z,5.57
2022-11-25T13:22:27.257Z,5.17
2022-11-25T13:25:05.091Z,6.13
2022-11-25T13:31:30.370Z,6.13
2022-11-25T13:34:28.628Z,5.67
2022-11-25T13:37:23.584Z,5.77
2022-11-25T13:40:26.579Z,7.23
2022-11-25T13:42:57.672Z,9.87
2022-11-25T13:45:58.657Z,6.13
2022-11-25T13:48:54.653Z,8.63
2022-11-25T13:52:09.443Z,6.33
2022-11-25T13:55:57.913Z,6.90
2022-11-25T13:58:36.353Z,4.97
2022-11-25T14:01:35.869Z,5.23
2022-11-25T14:04:18.595Z,7.20
2022-11-25T14:06:55.400Z,7.27
2022-11-25T14:09:41.899Z,6.03
2022-11-25T14:12:43.016Z,7.90
2022-11-25T14:16:02.344Z,4.43
2022-11-25T14:19:28.172Z,5.70
2022-11-25T14:22:28.076Z,5.93
2022-11-25T14:25:10.426Z,6.73
2022-11-25T14:27:52.648Z,7.47
2022-11-25T14:30:26.660Z,6.43
2022-11-25T14:33:08.737Z,6.37
2022-11-25T14:36:10.666Z,6.87
2022-11-25T14:38:59.826Z,7.57
2022-11-25T14:41:41.698Z,5.73
2022-11-25T14:44:23.344Z,6.53
2022-11-25T14:47:11.090Z,7.83
2022-11-25T14:50:26.601Z,6.17
2022-11-25T14:52:55.282Z,32.70
2022-11-25T14:55:46.162Z,39.63
2022-11-25T14:58:16.337Z,15.93
2022-11-25T15:01:03.528Z,10.23
2022-11-25T15:03:30.896Z,7.53
2022-11-25T15:06:25.350Z,6.57
2022-11-25T15:08:58.462Z,5.17
2022-11-25T15:11:45.194Z,7.60
2022-11-25T15:14:24.045Z,4.90
2022-11-25T15:16:52.285Z,5.80
2022-11-25T15:19:23.148Z,7.47
2022-11-25T15:22:22.399Z,7.53
2022-11-25T15:24:55.563Z,5.43
2022-11-25T15:27:26.444Z,6.83
2022-11-25T15:30:01.893Z,5.67
2022-11-25T15:32:33.337Z,5.93
2022-11-25T15:35:02.161Z,10.47
2022-11-25T15:37:29.684Z,6.87
2022-11-25T15:40:36.655Z,12.10
2022-11-25T15:43:29.720Z,9.17
2022-11-25T15:46:01.982Z,8.23
2022-11-25T15:48:35.488Z,6.90
2022-11-25T15:51:59.590Z,20.50
2022-11-25T15:54:33.090Z,11.50
2022-11-25T15:57:14.909Z,9.43
2022-11-25T16:00:13.465Z,7.80
2022-11-25T16:02:43.856Z,8.13
2022-11-25T16:05:15.930Z,9.43
2022-11-25T16:07:52.418Z,9.30
2022-11-25T16:10:22.853Z,13.47
2022-11-25T16:13:23.083Z,15.40
2022-11-25T16:16:09.077Z,11.43
2022-11-25T16:18:57.834Z,9.73
2022-11-25T16:21:30.715Z,11.77
2022-11-25T16:24:06.930Z,14.73
2022-11-25T16:26:36.674Z,13.63
2022-11-25T16:29:16.459Z,14.07
2022-11-25T16:31:43.784Z,16.40
2022-11-25T16:34:16.615Z,14.53
2022-11-25T16:36:44.166Z,16.67
2022-11-25T16:39:11.851Z,16.33
2022-11-25T16:41:40.549Z,24.77
2022-11-25T16:44:20.060Z,40.83
2022-11-25T16:46:47.589Z,42.07
2022-11-25T16:49:16.631Z,30.97
2022-11-25T16:51:43.973Z,21.07
2022-11-25T16:54:12.554Z,15.47
2022-11-25T16:56:41.924Z,13.53
2022-11-25T16:59:27.128Z,10.73
2022-11-25T17:01:54.966Z,11.77
2022-11-25T17:04:22.293Z,7.97
2022-11-25T17:07:16.644Z,8.17
2022-11-25T17:09:37.035Z,22.10
2022-11-25T17:12:06.981Z,12.87
2022-11-25T17:14:36.541Z,10.20
2022-11-25T17:17:04.851Z,8.73
2022-11-25T17:19:32.439Z,10.47
2022-11-25T17:21:59.775Z,10.67
2022-11-25T17:24:27.461Z,9.37
2022-11-25T17:27:03.456Z,10.67
2022-11-25T17:29:35.346Z,8.13
2022-11-25T17:32:03.578Z,11.63
2022-11-25T17:34:36.331Z,9.73
2022-11-25T17:37:25.833Z,12.03
2022-11-25T17:39:53.818Z,16.33
2022-11-25T17:42:30.508Z,14.80
2022-11-25T17:45:03.997Z,18.23
2022-11-25T17:47:31.285Z,11.03
2022-11-25T17:49:58.641Z,13.13
2022-11-25T17:52:25.972Z,10.13
2022-11-25T17:54:53.396Z,9.07
2022-11-25T17:57:22.009Z,14.63
2022-11-25T17:59:49.499Z,9.20
2022-11-25T18:02:22.593Z,14.70
2022-11-25T18:04:50.194Z,9.97
2022-11-25T18:07:18.329Z,8.87
2022-11-25T18:09:45.851Z,6.93
2022-11-25T18:12:21.643Z,6.17
2022-11-25T18:14:49.189Z,4.77
2022-11-25T18:17:19.380Z,6.07
2022-11-25T18:19:54.651Z,7.43
2022-11-25T18:22:24.133Z,7.03
2022-11-25T18:24:52.786Z,13.63
2022-11-25T18:27:22.140Z,8.03
2022-11-25T18:30:06.677Z,12.67
2022-11-25T18:32:34.064Z,14.73
2022-11-25T18:35:01.419Z,9.47
2022-11-25T18:37:28.730Z,18.03
2022-11-25T18:39:55.960Z,11.93
2022-11-25T18:42:27.458Z,12.60
2022-11-25T18:44:56.151Z,14.50
2022-11-25T18:47:42.004Z,11.60
2022-11-25T18:50:23.750Z,17.20
2022-11-25T18:52:51.766Z,14.53
2022-11-25T18:55:21.708Z,16.67
2022-11-25T18:57:51.133Z,22.70
2022-11-25T19:00:32.265Z,26.23
2022-11-25T19:03:01.190Z,18.33
2022-11-25T19:05:32.299Z,19.97
2022-11-25T19:08:00.116Z,21.07
2022-11-25T19:10:30.878Z,27.67
2022-11-25T19:13:01.650Z,12.63
2022-11-25T19:15:29.146Z,14.90
2022-11-25T19:18:02.129Z,14.67
2022-11-25T19:20:32.386Z,8.83
2022-11-25T19:23:12.266Z,12.63
2022-11-25T19:25:39.575Z,16.10
2022-11-25T19:28:06.957Z,14.90
2022-11-25T19:30:34.196Z,16.57
2022-11-25T19:33:02.558Z,13.90
2022-11-25T19:35:35.617Z,12.47
2022-11-25T19:38:02.983Z,12.23
2022-11-25T19:40:33.525Z,11.43
2022-11-25T19:43:05.055Z,9.53
2022-11-25T19:45:32.569Z,10.93
2022-11-25T19:48:20.723Z,10.50
2022-11-25T19:50:52.086Z,17.27
2022-11-25T19:53:20.923Z,11.47
2022-11-25T19:55:48.826Z,9.87
2022-11-25T19:58:16.116Z,13.53
2022-11-25T20:00:45.632Z,22.80
2022-11-25T20:03:23.542Z,12.43
2022-11-25T20:06:15.076Z,9.97
2022-11-25T20:08:42.375Z,12.83
2022-11-25T20:11:17.805Z,13.20
2022-11-25T20:13:46.039Z,8.93
2022-11-25T20:16:36.078Z,12.00
2022-11-25T20:19:04.196Z,10.53
2022-11-25T20:21:40.848Z,12.93
2022-11-25T20:24:27.064Z,10.13
2022-11-25T20:26:54.381Z,8.50
2022-11-25T20:29:28.904Z,13.50
2022-11-25T20:31:58.261Z,9.37
2022-11-25T20:34:25.737Z,10.63
2022-11-25T20:36:53.052Z,12.70
2022-11-25T20:39:20.620Z,16.30
2022-11-25T20:41:52.000Z,13.03
2022-11-25T20:44:20.471Z,11.60
2022-11-25T20:46:48.178Z,11.97
2022-11-25T20:49:22.901Z,16.73
2022-11-25T20:51:50.304Z,11.00
2022-11-25T20:54:17.928Z,13.17
2022-11-25T20:56:45.241Z,10.97
2022-11-25T20:59:21.701Z,14.23
2022-11-25T21:01:50.185Z,13.30
2022-11-25T21:04:18.385Z,17.17
2022-11-25T21:06:46.129Z,13.80
2022-11-25T21:09:19.023Z,18.63
2022-11-25T21:12:04.772Z,15.80
2022-11-25T21:14:31.994Z,32.30
2022-11-25T21:16:59.274Z,20.03
2022-11-25T21:19:26.499Z,13.57
2022-11-25T21:21:54.110Z,15.40
2022-11-25T21:24:38.980Z,18.20
2022-11-25T21:27:15.105Z,15.17
2022-11-25T21:29:43.962Z,16.30
2022-11-25T21:32:19.601Z,11.43
2022-11-25T21:34:46.964Z,11.90
2022-11-25T21:37:29.925Z,15.30
2022-11-25T21:39:58.894Z,12.53
2022-11-25T21:42:27.042Z,10.93
2022-11-25T21:44:54.813Z,15.33
2022-11-25T21:47:25.030Z,11.77
2022-11-25T21:49:52.963Z,11.60
2022-11-25T21:52:20.188Z,14.13
2022-11-25T21:54:47.746Z,11.30
2022-11-25T21:57:43.027Z,10.60
2022-11-25T22:00:25.393Z,11.93
2022-11-25T22:02:53.179Z,11.23
2022-11-25T22:05:39.343Z,8.07
2022-11-25T22:08:06.825Z,8.13
2022-11-25T22:10:34.445Z,15.90
2022-11-25T22:13:04.047Z,11.30
2022-11-25T22:15:31.345Z,11.10
2022-11-25T22:17:58.844Z,9.63
2022-11-25T22:20:29.033Z,9.13
2022-11-25T22:22:56.642Z,11.17
2022-11-25T22:25:26.792Z,14.80
2022-11-25T22:27:54.309Z,12.33
2022-11-25T22:30:23.063Z,12.47
2022-11-25T22:33:00.434Z,18.47
2022-11-25T22:35:30.790Z,16.50
2022-11-25T22:37:58.088Z,13.67
2022-11-25T22:40:25.682Z,16.20
2022-11-25T22:42:55.069Z,15.70
2022-11-25T22:45:30.941Z,20.80
2022-11-25T22:48:15.729Z,15.00
2022-11-25T22:50:46.777Z,16.63
2022-11-25T22:53:32.601Z,15.60
2022-11-25T22:56:00.188Z,15.03
2022-11-25T22:58:28.441Z,14.03
2022-11-25T23:01:15.928Z,16.47
2022-11-25T23:04:19.511Z,14.27
2022-11-25T23:06:47.849Z,14.47
2022-11-25T23:09:18.895Z,11.53
2022-11-25T23:11:46.901Z,16.23
2022-11-25T23:14:14.191Z,16.47
2022-11-25T23:16:42.621Z,16.30
2022-11-25T23:19:16.871Z,12.97
2022-11-25T23:21:45.725Z,14.67
2022-11-25T23:24:15.641Z,17.20
2022-11-25T23:26:44.083Z,10.67
2022-11-25T23:29:19.278Z,14.27
2022-11-25T23:31:46.626Z,14.97
2022-11-25T23:34:13.997Z,13.40
2022-11-25T23:36:47.394Z,20.70
2022-11-25T23:39:21.588Z,14.80
2022-11-25T23:42:20.543Z,12.77
2022-11-25T23:44:47.837Z,15.20
2022-11-25T23:47:33.301Z,11.67
2022-11-25T23:50:03.166Z,20.63
2022-11-25T23:52:30.692Z,9.93
2022-11-25T23:54:58.236Z,14.53
2022-11-25T23:57:32.760Z,18.30
